createdAt,value
2017-09-30T00:00:01.023Z,18.30
2017-09-30T00:02:27.360Z,18.50
2017-09-30T00:04:53.608Z,18.30
2017-09-30T00:07:19.858Z,18.40
2017-09-30T00:09:46.891Z,18.20
2017-09-30T00:12:13.114Z,18.20
2017-09-30T00:14:39.372Z,18.40
2017-09-30T00:17:05.642Z,18.20
2017-09-30T00:19:32.019Z,18.40
2017-09-30T00:21:58.265Z,18.20
2017-09-30T00:24:24.513Z,18.20
2017-09-30T00:26:51.475Z,18.20
2017-09-30T00:29:17.731Z,18.20
2017-09-30T00:31:44.034Z,18.10
2017-09-30T00:34:10.278Z,18.20
2017-09-30T00:36:36.523Z,18.10
2017-09-30T00:39:02.914Z,18.10
2017-09-30T00:41:29.153Z,18.10
2017-09-30T00:43:55.390Z,18.10
2017-09-30T00:46:21.637Z,18.10
2017-09-30T00:48:47.963Z,18.10
2017-09-30T00:51:14.209Z,18.10
2017-09-30T00:53:40.454Z,18.10
2017-09-30T00:56:06.705Z,18.10
2017-09-30T00:58:32.937Z,18.10
2017-09-30T01:00:59.209Z,18.00
2017-09-30T01:03:25.441Z,18.00
2017-09-30T01:05:52.430Z,18.00
2017-09-30T01:08:18.719Z,18.10
2017-09-30T01:10:44.953Z,18.00
2017-09-30T01:13:11.186Z,18.00
2017-09-30T01:15:37.453Z,18.00
2017-09-30T01:18:03.673Z,18.10
2017-09-30T01:20:29.894Z,18.00
2017-09-30T01:22:56.151Z,18.00
2017-09-30T01:25:22.394Z,18.00
2017-09-30T01:27:48.638Z,18.00
2017-09-30T01:30:14.909Z,18.00
2017-09-30T01:32:41.150Z,18.10
2017-09-30T01:35:07.370Z,18.00
2017-09-30T01:37:33.615Z,18.00
2017-09-30T01:39:59.850Z,17.90
2017-09-30T01:42:26.118Z,17.90
2017-09-30T01:44:52.410Z,17.90
2017-09-30T01:47:18.645Z,17.90
2017-09-30T01:49:45.026Z,17.90
2017-09-30T01:52:12.034Z,17.90
2017-09-30T01:54:38.266Z,17.80
2017-09-30T01:57:04.515Z,17.90
2017-09-30T01:59:30.750Z,18.00
2017-09-30T02:01:56.984Z,18.00
2017-09-30T02:04:23.217Z,17.80
2017-09-30T02:06:49.487Z,17.80
2017-09-30T02:09:15.718Z,18.00
2017-09-30T02:11:42.701Z,17.80
2017-09-30T02:14:08.962Z,17.70
2017-09-30T02:16:35.262Z,17.70
2017-09-30T02:19:01.502Z,17.80
2017-09-30T02:21:27.762Z,17.70
2017-09-30T02:23:54.010Z,17.70
2017-09-30T02:26:20.988Z,17.70
2017-09-30T02:28:47.262Z,17.80
2017-09-30T02:31:13.491Z,17.70
2017-09-30T02:33:42.266Z,17.90
2017-09-30T02:36:09.306Z,17.70
2017-09-30T02:38:35.521Z,17.60
2017-09-30T02:41:01.754Z,17.70
2017-09-30T02:43:28.050Z,17.70
2017-09-30T02:45:54.284Z,17.60
2017-09-30T02:48:20.523Z,17.60
2017-09-30T02:50:49.394Z,17.60
2017-09-30T02:53:15.629Z,17.60
2017-09-30T02:55:41.846Z,17.60
2017-09-30T02:58:08.122Z,17.60
2017-09-30T03:00:34.346Z,17.60
2017-09-30T03:03:00.576Z,17.60
2017-09-30T03:05:27.625Z,17.60
2017-09-30T03:07:54.574Z,17.50
2017-09-30T03:10:20.808Z,17.50
2017-09-30T03:12:47.032Z,17.50
2017-09-30T03:15:13.241Z,17.50
2017-09-30T03:17:39.479Z,17.50
2017-09-30T03:20:05.722Z,17.50
2017-09-30T03:22:32.689Z,17.50
2017-09-30T03:24:58.913Z,17.40
2017-09-30T03:27:25.151Z,17.50
2017-09-30T03:32:24.417Z,17.50
2017-09-30T03:34:50.669Z,17.40
2017-09-30T03:37:16.887Z,17.40
2017-09-30T03:39:43.133Z,17.40
2017-09-30T03:42:09.368Z,17.40
2017-09-30T03:44:36.331Z,17.30
2017-09-30T03:47:02.557Z,17.50
2017-09-30T03:49:28.792Z,17.30
2017-09-30T03:51:56.728Z,17.30
2017-09-30T03:54:22.949Z,17.30
2017-09-30T03:56:49.995Z,17.30
2017-09-30T03:59:16.210Z,17.30
2017-09-30T04:01:42.481Z,17.30
2017-09-30T04:04:08.725Z,17.30
2017-09-30T04:06:34.970Z,17.10
2017-09-30T04:09:01.190Z,17.20
2017-09-30T04:11:27.453Z,17.20
2017-09-30T04:13:53.670Z,17.20
2017-09-30T04:16:19.905Z,17.20
2017-09-30T04:18:46.161Z,17.20
2017-09-30T04:21:12.378Z,17.20
2017-09-30T04:23:38.601Z,17.20
2017-09-30T04:26:04.838Z,17.20
2017-09-30T04:28:31.045Z,17.20
2017-09-30T04:30:57.262Z,17.20
2017-09-30T04:33:23.507Z,17.20
2017-09-30T04:35:49.717Z,17.20
2017-09-30T04:38:15.943Z,17.20
2017-09-30T04:40:42.289Z,17.20
2017-09-30T04:43:15.456Z,17.20
2017-09-30T04:45:41.704Z,17.10
2017-09-30T04:48:07.931Z,17.20
2017-09-30T04:50:34.157Z,17.30
2017-09-30T04:53:00.494Z,17.10
2017-09-30T04:55:26.709Z,17.10
2017-09-30T04:57:52.934Z,17.30
2017-09-30T05:00:19.273Z,17.10
2017-09-30T05:02:45.502Z,17.10
2017-09-30T05:05:11.717Z,17.10
2017-09-30T05:07:37.970Z,17.10
2017-09-30T05:10:04.193Z,17.10
2017-09-30T05:12:30.443Z,17.10
2017-09-30T05:14:56.686Z,17.10
2017-09-30T05:17:23.650Z,17.10
2017-09-30T05:19:50.609Z,17.00
2017-09-30T05:22:16.833Z,17.10
2017-09-30T05:24:43.066Z,17.10
2017-09-30T05:27:09.305Z,17.00
2017-09-30T05:29:35.533Z,17.00
2017-09-30T05:32:01.810Z,17.00
2017-09-30T05:34:28.042Z,17.00
2017-09-30T05:36:54.274Z,17.00
2017-09-30T05:39:20.484Z,17.00
2017-09-30T05:41:46.712Z,17.00
2017-09-30T05:44:12.956Z,17.00
2017-09-30T05:46:39.174Z,17.00
2017-09-30T05:49:05.393Z,17.20
2017-09-30T05:51:31.665Z,17.00
2017-09-30T05:53:58.842Z,17.00
2017-09-30T05:56:25.077Z,16.90
2017-09-30T05:58:52.041Z,16.90
2017-09-30T06:01:18.273Z,16.90
2017-09-30T06:03:44.492Z,16.90
2017-09-30T06:06:10.734Z,16.90
2017-09-30T06:08:36.953Z,16.90
2017-09-30T06:11:03.170Z,16.90
2017-09-30T06:13:29.414Z,16.90
2017-09-30T06:15:55.626Z,16.90
2017-09-30T06:18:21.839Z,16.90
2017-09-30T06:20:48.130Z,17.10
2017-09-30T06:23:14.365Z,16.90
2017-09-30T06:25:40.584Z,16.90
2017-09-30T06:28:06.813Z,16.90
2017-09-30T06:30:33.038Z,16.90
2017-09-30T06:32:59.263Z,16.90
2017-09-30T06:35:25.514Z,16.90
2017-09-30T06:37:51.754Z,16.90
2017-09-30T06:40:18.654Z,16.90
2017-09-30T06:42:44.971Z,16.90
2017-09-30T06:45:11.206Z,16.90
2017-09-30T06:47:37.422Z,17.10
2017-09-30T06:50:03.710Z,16.90
2017-09-30T06:52:29.928Z,16.80
2017-09-30T06:54:56.978Z,16.90
2017-09-30T06:57:23.269Z,16.90
2017-09-30T06:59:49.492Z,17.00
2017-09-30T07:02:15.722Z,16.90
2017-09-30T07:04:41.993Z,16.90
2017-09-30T07:07:08.223Z,17.00
2017-09-30T07:09:34.464Z,16.90
2017-09-30T07:12:00.721Z,16.90
2017-09-30T07:14:26.957Z,17.10
2017-09-30T07:16:53.177Z,16.90
2017-09-30T07:19:19.456Z,16.90
2017-09-30T07:21:45.693Z,16.90
2017-09-30T07:24:11.926Z,16.90
2017-09-30T07:26:38.164Z,16.90
2017-09-30T07:29:05.205Z,16.90
2017-09-30T07:31:31.515Z,16.90
2017-09-30T07:33:57.906Z,16.90
2017-09-30T07:36:24.138Z,16.90
2017-09-30T07:38:50.362Z,16.90
2017-09-30T07:41:17.374Z,16.90
2017-09-30T07:43:43.614Z,16.90
2017-09-30T07:46:10.101Z,16.90
2017-09-30T07:48:36.333Z,16.90
2017-09-30T07:51:02.573Z,16.90
2017-09-30T07:53:29.455Z,16.90
2017-09-30T07:55:55.803Z,17.00
2017-09-30T07:58:22.782Z,17.00
2017-09-30T08:00:49.010Z,16.90
2017-09-30T08:03:15.257Z,17.00
2017-09-30T08:05:41.486Z,17.00
2017-09-30T08:08:07.715Z,17.00
2017-09-30T08:10:34.806Z,17.00
2017-09-30T08:13:01.925Z,17.00
2017-09-30T08:15:28.142Z,17.00
2017-09-30T08:17:54.422Z,17.00
2017-09-30T08:20:20.667Z,17.20
2017-09-30T08:22:46.983Z,17.20
2017-09-30T08:25:13.335Z,17.00
2017-09-30T08:27:40.296Z,17.00
2017-09-30T08:30:07.258Z,17.00
2017-09-30T08:32:33.517Z,17.20
2017-09-30T08:34:59.794Z,17.10
2017-09-30T08:37:26.770Z,17.10
2017-09-30T08:39:53.021Z,17.10
2017-09-30T08:42:19.285Z,17.20
2017-09-30T08:44:48.333Z,17.20
2017-09-30T08:47:15.370Z,17.20
2017-09-30T08:49:41.633Z,17.20
2017-09-30T08:52:07.886Z,17.30
2017-09-30T08:54:34.676Z,17.30
2017-09-30T08:57:03.644Z,17.30
2017-09-30T08:59:29.889Z,17.30
2017-09-30T09:01:56.869Z,17.30
2017-09-30T09:04:23.125Z,17.40
2017-09-30T09:06:49.367Z,17.30
2017-09-30T09:09:15.616Z,17.40
2017-09-30T09:11:41.843Z,17.40
2017-09-30T09:14:08.071Z,17.40
2017-09-30T09:16:34.347Z,17.50
2017-09-30T09:19:01.614Z,17.50
2017-09-30T09:21:27.872Z,17.50
2017-09-30T09:23:54.142Z,17.80
2017-09-30T09:26:20.370Z,17.60
2017-09-30T09:28:46.590Z,17.60
2017-09-30T09:31:13.594Z,17.60
2017-09-30T09:33:39.815Z,17.70
2017-09-30T09:36:06.038Z,17.70
2017-09-30T09:38:32.362Z,17.70
2017-09-30T09:40:58.601Z,17.70
2017-09-30T09:43:24.825Z,17.80
2017-09-30T09:45:52.059Z,17.80
2017-09-30T09:48:18.283Z,17.80
2017-09-30T09:50:44.510Z,17.80
2017-09-30T09:53:10.745Z,17.80
2017-09-30T09:55:36.954Z,17.80
2017-09-30T09:58:03.249Z,17.80
2017-09-30T10:00:29.502Z,17.80
2017-09-30T10:02:55.721Z,17.80
2017-09-30T10:05:21.990Z,17.90
2017-09-30T10:07:48.237Z,17.90
2017-09-30T10:10:15.210Z,17.90
2017-09-30T10:12:41.429Z,17.80
2017-09-30T10:15:07.661Z,17.90
2017-09-30T10:17:33.881Z,17.80
2017-09-30T10:20:00.113Z,17.80
2017-09-30T10:22:26.353Z,17.80
2017-09-30T10:24:52.561Z,17.80
2017-09-30T10:27:18.782Z,17.80
2017-09-30T10:29:45.050Z,17.90
2017-09-30T10:32:12.002Z,17.80
2017-09-30T10:34:38.209Z,17.80
2017-09-30T10:37:04.461Z,17.70
2017-09-30T10:39:30.681Z,17.70
2017-09-30T10:41:56.897Z,17.70
2017-09-30T10:44:23.129Z,17.60
2017-09-30T10:46:49.368Z,17.60
2017-09-30T10:49:15.747Z,17.50
2017-09-30T10:51:42.010Z,17.50
2017-09-30T10:54:08.444Z,17.50
2017-09-30T10:56:35.518Z,17.60
2017-09-30T10:59:01.934Z,17.30
2017-09-30T11:01:28.180Z,17.60
2017-09-30T11:03:54.416Z,17.90
2017-09-30T11:06:21.405Z,17.70
2017-09-30T11:08:47.685Z,17.70
2017-09-30T11:11:14.774Z,17.70
2017-09-30T11:13:41.038Z,17.80
2017-09-30T11:16:07.256Z,17.80
2017-09-30T11:18:34.246Z,17.90
2017-09-30T11:21:00.535Z,17.80
2017-09-30T11:23:26.799Z,17.90
2017-09-30T11:25:53.030Z,17.50
2017-09-30T11:28:19.285Z,17.90
2017-09-30T11:30:45.512Z,18.00
2017-09-30T11:33:11.741Z,17.90
2017-09-30T11:35:37.995Z,17.90
2017-09-30T11:38:04.218Z,17.90
2017-09-30T11:40:30.454Z,18.00
2017-09-30T11:42:57.436Z,18.00
2017-09-30T11:45:23.654Z,17.90
2017-09-30T11:47:49.865Z,17.90
2017-09-30T11:50:16.846Z,18.00
2017-09-30T11:52:43.102Z,18.00
2017-09-30T11:55:09.373Z,18.10
2017-09-30T11:57:35.674Z,18.00
2017-09-30T12:00:02.171Z,18.00
2017-09-30T12:02:28.390Z,18.00
2017-09-30T12:04:54.633Z,18.00
2017-09-30T12:07:20.861Z,18.00
2017-09-30T12:09:47.070Z,18.10
2017-09-30T12:12:13.385Z,18.00
2017-09-30T12:14:40.382Z,18.00
2017-09-30T12:17:06.606Z,18.00
2017-09-30T12:19:32.897Z,18.00
2017-09-30T12:21:59.142Z,17.70
2017-09-30T12:24:25.385Z,18.00
2017-09-30T12:26:51.639Z,18.00
2017-09-30T12:29:18.312Z,18.00
2017-09-30T12:31:44.545Z,18.10
2017-09-30T12:34:10.789Z,18.00
2017-09-30T12:36:37.751Z,18.10
2017-09-30T12:39:04.001Z,18.10
2017-09-30T12:41:30.277Z,18.30
2017-09-30T12:43:56.500Z,18.10
2017-09-30T12:46:22.738Z,18.10
2017-09-30T12:48:49.014Z,18.10
2017-09-30T12:51:15.969Z,18.10
2017-09-30T12:53:42.186Z,18.10
2017-09-30T12:56:08.458Z,18.20
2017-09-30T12:58:34.692Z,18.20
2017-09-30T13:01:01.014Z,18.10
2017-09-30T13:03:28.039Z,18.10
2017-09-30T13:05:55.089Z,18.10
2017-09-30T13:10:54.217Z,18.20
2017-09-30T13:13:20.462Z,17.90
2017-09-30T13:15:46.695Z,18.20
2017-09-30T13:18:13.730Z,18.20
2017-09-30T13:20:39.964Z,18.20
2017-09-30T13:23:06.191Z,18.20
2017-09-30T13:25:32.449Z,18.40
2017-09-30T13:27:58.678Z,18.40
2017-09-30T13:30:24.903Z,18.20
2017-09-30T13:32:51.161Z,18.20
2017-09-30T13:35:17.389Z,18.20
2017-09-30T13:37:43.626Z,18.20
2017-09-30T13:40:09.893Z,18.30
2017-09-30T13:42:36.963Z,18.20
2017-09-30T13:45:03.191Z,18.40
2017-09-30T13:47:29.488Z,18.20
2017-09-30T13:49:55.752Z,18.30
2017-09-30T13:52:21.985Z,18.30
2017-09-30T13:54:49.053Z,18.30
2017-09-30T13:57:15.282Z,18.20
2017-09-30T13:59:41.509Z,18.50
2017-09-30T14:02:07.878Z,18.30
2017-09-30T14:04:34.133Z,18.30
2017-09-30T14:07:01.197Z,18.30
2017-09-30T14:09:28.306Z,18.30
2017-09-30T14:11:54.558Z,18.30
2017-09-30T14:14:22.573Z,18.30
2017-09-30T14:16:48.822Z,18.30
2017-09-30T14:19:15.062Z,18.30
2017-09-30T14:21:41.308Z,18.30
2017-09-30T14:24:07.578Z,18.30
2017-09-30T14:26:33.813Z,18.10
2017-09-30T14:29:00.058Z,18.50
2017-09-30T14:31:26.296Z,18.30
2017-09-30T14:33:53.452Z,18.50
2017-09-30T14:36:20.498Z,18.30
2017-09-30T14:38:46.754Z,18.50
2017-09-30T14:41:12.995Z,18.30
2017-09-30T14:43:39.225Z,18.30
2017-09-30T14:46:05.487Z,18.30
2017-09-30T14:48:31.893Z,18.30
2017-09-30T14:50:58.138Z,18.50
2017-09-30T14:53:24.406Z,18.30
2017-09-30T14:55:50.649Z,18.30
2017-09-30T14:58:16.866Z,18.30
2017-09-30T15:00:43.119Z,18.30
2017-09-30T15:03:09.455Z,18.30
2017-09-30T15:05:35.719Z,18.30
2017-09-30T15:08:02.735Z,18.30
2017-09-30T15:10:28.964Z,18.30
2017-09-30T15:12:55.190Z,18.30
2017-09-30T15:15:21.471Z,18.40
2017-09-30T15:17:47.709Z,18.30
2017-09-30T15:20:13.955Z,18.30
2017-09-30T15:22:40.217Z,18.30
2017-09-30T15:25:06.447Z,18.50
2017-09-30T15:27:32.782Z,18.40
2017-09-30T15:29:59.029Z,18.30
2017-09-30T15:32:25.256Z,18.30
2017-09-30T15:34:52.251Z,18.30
2017-09-30T15:37:19.274Z,18.30
2017-09-30T15:39:46.203Z,18.30
2017-09-30T15:42:12.497Z,18.30
2017-09-30T15:44:39.269Z,18.30
2017-09-30T15:47:05.534Z,18.30
2017-09-30T15:49:31.791Z,18.30
2017-09-30T15:51:58.094Z,18.20
2017-09-30T15:54:25.222Z,18.10
2017-09-30T15:56:51.445Z,18.20
2017-09-30T15:59:17.785Z,18.30
2017-09-30T16:01:44.175Z,18.20
2017-09-30T16:04:11.238Z,18.30
2017-09-30T16:06:37.747Z,18.20
2017-09-30T16:09:04.189Z,18.30
2017-09-30T16:11:31.158Z,18.20
2017-09-30T16:13:58.302Z,18.20
2017-09-30T16:16:24.538Z,18.20
2017-09-30T16:18:50.866Z,18.40
2017-09-30T16:21:17.853Z,18.20
2017-09-30T16:23:44.122Z,18.20
2017-09-30T16:26:11.058Z,18.30
2017-09-30T16:28:37.399Z,18.30
2017-09-30T16:31:03.671Z,18.20
2017-09-30T16:33:29.913Z,18.20
2017-09-30T16:35:56.290Z,18.20
2017-09-30T16:38:22.570Z,18.20
2017-09-30T16:40:48.830Z,18.30
2017-09-30T16:43:15.124Z,18.20
2017-09-30T16:45:42.247Z,18.20
2017-09-30T16:48:08.549Z,18.20
2017-09-30T16:50:34.827Z,18.20
2017-09-30T16:53:01.079Z,18.20
2017-09-30T16:55:27.427Z,18.20
2017-09-30T16:57:53.693Z,18.40
2017-09-30T17:00:19.965Z,18.20
2017-09-30T17:02:46.223Z,18.20
2017-09-30T17:05:12.627Z,18.20
2017-09-30T17:07:38.882Z,18.20
2017-09-30T17:10:05.189Z,18.20
2017-09-30T17:12:32.233Z,18.20
2017-09-30T17:14:58.490Z,18.20
2017-09-30T17:17:24.726Z,18.40
2017-09-30T17:19:51.050Z,18.20
2017-09-30T17:22:18.945Z,18.20
2017-09-30T17:24:45.194Z,18.20
2017-09-30T17:27:11.452Z,18.30
2017-09-30T17:29:37.681Z,18.20
2017-09-30T17:32:03.909Z,18.20
2017-09-30T17:34:30.206Z,18.20
2017-09-30T17:36:56.478Z,18.20
2017-09-30T17:39:22.714Z,18.20
2017-09-30T17:41:49.689Z,18.30
2017-09-30T17:44:15.942Z,18.20
2017-09-30T17:46:42.170Z,18.30
2017-09-30T17:49:08.426Z,18.20
2017-09-30T17:51:34.634Z,18.30
2017-09-30T17:54:00.857Z,18.20
2017-09-30T17:56:27.142Z,18.30
2017-09-30T17:58:53.373Z,18.30
2017-09-30T18:01:19.611Z,18.40
2017-09-30T18:03:45.865Z,18.40
2017-09-30T18:06:12.224Z,18.30
2017-09-30T18:08:40.078Z,18.30
2017-09-30T18:11:06.315Z,18.30
2017-09-30T18:13:32.590Z,18.30
2017-09-30T18:15:58.823Z,18.20
2017-09-30T18:18:25.078Z,18.20
2017-09-30T18:20:52.054Z,18.30
2017-09-30T18:23:18.277Z,18.20
2017-09-30T18:25:44.512Z,18.30
2017-09-30T18:28:10.789Z,18.20
2017-09-30T18:30:37.039Z,18.20
2017-09-30T18:33:03.312Z,18.20
2017-09-30T18:35:29.558Z,18.20
2017-09-30T18:37:55.790Z,18.20
2017-09-30T18:40:22.078Z,18.20
2017-09-30T18:42:48.333Z,18.20
2017-09-30T18:45:14.651Z,18.50
2017-09-30T18:47:41.634Z,18.30
2017-09-30T18:50:07.877Z,18.20
2017-09-30T18:52:34.098Z,18.20
2017-09-30T18:55:00.350Z,18.20
2017-09-30T18:57:26.839Z,18.20
2017-09-30T18:59:53.066Z,18.10
2017-09-30T19:02:19.363Z,18.40
2017-09-30T19:04:45.779Z,18.10
2017-09-30T19:07:12.377Z,18.20
2017-09-30T19:09:38.703Z,18.10
2017-09-30T19:12:05.916Z,18.20
2017-09-30T19:14:32.269Z,18.10
2017-09-30T19:16:58.535Z,18.20
2017-09-30T19:19:24.746Z,18.20
2017-09-30T19:21:52.679Z,18.10
2017-09-30T19:24:19.717Z,18.10
2017-09-30T19:26:45.926Z,18.10
2017-09-30T19:29:16.086Z,18.10
2017-09-30T19:31:46.124Z,18.10
2017-09-30T19:34:13.490Z,18.10
2017-09-30T19:36:40.566Z,18.10
2017-09-30T19:39:06.873Z,18.20
2017-09-30T19:41:34.091Z,18.10
2017-09-30T19:44:00.487Z,18.10
2017-09-30T19:46:27.665Z,18.10
2017-09-30T19:48:54.001Z,17.90
2017-09-30T19:51:20.366Z,18.10
2017-09-30T19:53:49.786Z,18.10
2017-09-30T19:56:16.066Z,18.10
2017-09-30T19:58:42.306Z,18.10
2017-09-30T20:01:08.599Z,18.10
2017-09-30T20:03:35.629Z,18.10
2017-09-30T20:06:02.647Z,18.10
2017-09-30T20:08:28.985Z,18.10
2017-09-30T20:10:55.243Z,18.10
2017-09-30T20:13:21.502Z,18.10
2017-09-30T20:15:47.786Z,18.00
2017-09-30T20:18:14.056Z,18.00
2017-09-30T20:20:40.302Z,17.90
2017-09-30T20:23:06.533Z,17.80
2017-09-30T20:25:32.922Z,17.70
2017-09-30T20:27:59.910Z,17.60
2017-09-30T20:30:26.257Z,17.60
2017-09-30T20:32:53.289Z,17.40
2017-09-30T20:35:20.250Z,17.20
2017-09-30T20:37:46.489Z,17.20
2017-09-30T20:40:12.850Z,17.00
2017-09-30T20:42:39.156Z,16.90
2017-09-30T20:45:06.122Z,16.80
2017-09-30T20:47:32.523Z,16.70
2017-09-30T20:49:58.779Z,16.60
2017-09-30T20:52:25.156Z,16.50
2017-09-30T20:54:51.416Z,16.40
2017-09-30T20:57:18.562Z,16.40
2017-09-30T20:59:44.815Z,16.40
2017-09-30T21:02:11.874Z,16.40
2017-09-30T21:04:38.102Z,16.40
2017-09-30T21:07:04.686Z,16.50
2017-09-30T21:09:32.278Z,16.40
2017-09-30T21:11:58.695Z,16.50
2017-09-30T21:14:24.970Z,16.50
2017-09-30T21:16:51.201Z,16.50
2017-09-30T21:19:17.628Z,16.50
2017-09-30T21:21:43.908Z,16.50
2017-09-30T21:24:10.791Z,16.50
2017-09-30T21:26:37.022Z,16.50
2017-09-30T21:29:03.269Z,16.60
2017-09-30T21:31:30.221Z,16.50
2017-09-30T21:33:56.430Z,16.50
2017-09-30T21:36:23.402Z,16.60
2017-09-30T21:38:49.680Z,16.60
2017-09-30T21:41:15.942Z,16.50
2017-09-30T21:43:42.178Z,16.50
2017-09-30T21:46:08.592Z,16.50
2017-09-30T21:48:34.832Z,16.50
2017-09-30T21:51:01.198Z,16.50
2017-09-30T21:53:27.522Z,16.50
2017-09-30T21:55:53.739Z,16.50
2017-09-30T21:58:20.070Z,16.50
2017-09-30T22:00:46.385Z,16.50
2017-09-30T22:03:12.703Z,16.50
2017-09-30T22:05:38.978Z,16.50
2017-09-30T22:08:05.192Z,16.50
2017-09-30T22:10:31.601Z,16.50
2017-09-30T22:12:58.683Z,16.40
2017-09-30T22:15:25.973Z,16.40
2017-09-30T22:17:53.068Z,16.40
2017-09-30T22:20:20.434Z,16.50
2017-09-30T22:22:47.465Z,16.50
2017-09-30T22:25:13.948Z,16.50
2017-09-30T22:27:40.178Z,16.50
2017-09-30T22:30:06.393Z,16.60
2017-09-30T22:32:32.615Z,16.60
2017-09-30T22:34:59.598Z,16.50
2017-09-30T22:37:25.821Z,16.50
2017-09-30T22:39:52.928Z,16.50
2017-09-30T22:42:19.213Z,16.50
2017-09-30T22:44:45.430Z,16.50
2017-09-30T22:47:11.645Z,16.50
2017-09-30T22:49:38.634Z,16.50
2017-09-30T22:52:05.698Z,16.50
2017-09-30T22:54:32.880Z,16.50
2017-09-30T22:57:00.042Z,16.50
2017-09-30T22:59:26.406Z,16.50
2017-09-30T23:01:54.415Z,16.50
2017-09-30T23:04:20.661Z,16.50
2017-09-30T23:06:47.987Z,16.50
2017-09-30T23:09:14.405Z,16.50
2017-09-30T23:11:41.820Z,16.50
2017-09-30T23:14:09.922Z,16.50
2017-09-30T23:16:36.142Z,16.50
2017-09-30T23:19:02.410Z,16.50
2017-09-30T23:21:28.658Z,16.50
2017-09-30T23:23:55.118Z,16.70
2017-09-30T23:26:21.393Z,16.60
2017-09-30T23:28:47.706Z,16.50
2017-09-30T23:31:14.659Z,16.50
2017-09-30T23:33:41.338Z,16.50
2017-09-30T23:36:07.792Z,16.50
2017-09-30T23:38:34.060Z,16.50
2017-09-30T23:41:00.301Z,16.50
2017-09-30T23:43:26.551Z,16.50
2017-09-30T23:45:52.778Z,16.70
2017-09-30T23:48:19.041Z,16.50
2017-09-30T23:50:45.306Z,16.50
2017-09-30T23:53:11.557Z,16.50
2017-09-30T23:55:37.802Z,16.50
2017-09-30T23:58:04.044Z,16.50
